sensor_id;sensor_type;location;lat;lon;timestamp;P1;durP1;ratioP1;P2;durP2;ratioP2
3155;SDS011;1588;50.892;7.082;2024-01-25T00:00:20;55.57;;;5.80;;
3155;SDS011;1588;50.892;7.082;2024-01-25T00:05:23;21.33;;;4.50;;
3155;SDS011;1588;50.892;7.082;2024-01-25T00:10:26;39.17;;;6.03;;
3155;SDS011;1588;50.892;7.082;2024-01-25T00:15:30;33.67;;;4.73;;
3155;SDS011;1588;50.892;7.082;2024-01-25T00:20:33;34.73;;;5.23;;
3155;SDS011;1588;50.892;7.082;2024-01-25T00:25:35;28.13;;;4.70;;
3155;SDS011;1588;50.892;7.082;2024-01-25T00:30:39;47.60;;;4.43;;
3155;SDS011;1588;50.892;7.082;2024-01-25T00:35:42;42.80;;;6.87;;
3155;SDS011;1588;50.892;7.082;2024-01-25T00:40:45;32.80;;;4.73;;
3155;SDS011;1588;50.892;7.082;2024-01-25T00:45:49;35.73;;;6.27;;
3155;SDS011;1588;50.892;7.082;2024-01-25T00:51:04;37.87;;;6.30;;
3155;SDS011;1588;50.892;7.082;2024-01-25T00:56:10;33.83;;;5.23;;
3155;SDS011;1588;50.892;7.082;2024-01-25T01:01:15;45.17;;;7.00;;
3155;SDS011;1588;50.892;7.082;2024-01-25T01:06:18;35.40;;;6.13;;
3155;SDS011;1588;50.892;7.082;2024-01-25T01:11:21;31.90;;;4.90;;
3155;SDS011;1588;50.892;7.082;2024-01-25T01:16:25;49.77;;;6.40;;
3155;SDS011;1588;50.892;7.082;2024-01-25T01:21:29;48.00;;;6.13;;
3155;SDS011;1588;50.892;7.082;2024-01-25T01:26:31;58.17;;;5.47;;
3155;SDS011;1588;50.892;7.082;2024-01-25T01:31:37;33.10;;;5.57;;
3155;SDS011;1588;50.892;7.082;2024-01-25T01:36:39;28.30;;;5.40;;
3155;SDS011;1588;50.892;7.082;2024-01-25T01:41:41;38.13;;;5.03;;
3155;SDS011;1588;50.892;7.082;2024-01-25T01:46:49;35.20;;;6.77;;
3155;SDS011;1588;50.892;7.082;2024-01-25T01:51:52;50.90;;;5.47;;
3155;SDS011;1588;50.892;7.082;2024-01-25T01:56:54;34.83;;;5.17;;
3155;SDS011;1588;50.892;7.082;2024-01-25T02:02:06;42.50;;;5.17;;
3155;SDS011;1588;50.892;7.082;2024-01-25T02:07:08;50.53;;;5.60;;
3155;SDS011;1588;50.892;7.082;2024-01-25T02:12:14;31.13;;;4.87;;
3155;SDS011;1588;50.892;7.082;2024-01-25T02:17:19;38.50;;;6.27;;
3155;SDS011;1588;50.892;7.082;2024-01-25T02:22:22;50.87;;;6.87;;
3155;SDS011;1588;50.892;7.082;2024-01-25T02:27:25;51.73;;;5.97;;
3155;SDS011;1588;50.892;7.082;2024-01-25T02:32:27;44.27;;;6.47;;
3155;SDS011;1588;50.892;7.082;2024-01-25T02:37:31;34.53;;;5.33;;
3155;SDS011;1588;50.892;7.082;2024-01-25T02:42:33;30.90;;;4.63;;
3155;SDS011;1588;50.892;7.082;2024-01-25T02:47:36;35.30;;;5.90;;
3155;SDS011;1588;50.892;7.082;2024-01-25T02:52:40;28.97;;;5.20;;
3155;SDS011;1588;50.892;7.082;2024-01-25T02:57:42;40.73;;;5.40;;
3155;SDS011;1588;50.892;7.082;2024-01-25T03:02:44;35.97;;;5.43;;
3155;SDS011;1588;50.892;7.082;2024-01-25T03:07:48;33.00;;;5.47;;
3155;SDS011;1588;50.892;7.082;2024-01-25T03:12:54;30.93;;;5.40;;
3155;SDS011;1588;50.892;7.082;2024-01-25T03:17:56;41.13;;;5.97;;
3155;SDS011;1588;50.892;7.082;2024-01-25T03:23:00;33.17;;;4.73;;
3155;SDS011;1588;50.892;7.082;2024-01-25T03:28:03;39.33;;;5.80;;
3155;SDS011;1588;50.892;7.082;2024-01-25T03:33:07;26.50;;;5.80;;
3155;SDS011;1588;50.892;7.082;2024-01-25T03:38:10;34.57;;;4.83;;
3155;SDS011;1588;50.892;7.082;2024-01-25T03:43:14;46.07;;;6.43;;
3155;SDS011;1588;50.892;7.082;2024-01-25T03:48:17;29.80;;;4.90;;
3155;SDS011;1588;50.892;7.082;2024-01-25T03:53:21;34.80;;;5.03;;
3155;SDS011;1588;50.892;7.082;2024-01-25T03:58:23;53.20;;;6.07;;
3155;SDS011;1588;50.892;7.082;2024-01-25T04:03:26;35.47;;;5.77;;
3155;SDS011;1588;50.892;7.082;2024-01-25T04:08:29;45.00;;;5.37;;
3155;SDS011;1588;50.892;7.082;2024-01-25T04:13:32;38.40;;;5.20;;
3155;SDS011;1588;50.892;7.082;2024-01-25T04:18:34;28.47;;;5.00;;
3155;SDS011;1588;50.892;7.082;2024-01-25T04:23:41;37.90;;;5.13;;
3155;SDS011;1588;50.892;7.082;2024-01-25T04:28:44;38.53;;;6.70;;
3155;SDS011;1588;50.892;7.082;2024-01-25T04:33:47;40.13;;;5.13;;
3155;SDS011;1588;50.892;7.082;2024-01-25T04:38:51;26.03;;;4.80;;
3155;SDS011;1588;50.892;7.082;2024-01-25T04:43:53;41.80;;;7.00;;
3155;SDS011;1588;50.892;7.082;2024-01-25T04:48:55;41.67;;;5.90;;
3155;SDS011;1588;50.892;7.082;2024-01-25T04:53:59;42.77;;;5.83;;
3155;SDS011;1588;50.892;7.082;2024-01-25T04:59:01;43.50;;;5.10;;
3155;SDS011;1588;50.892;7.082;2024-01-25T05:04:04;44.67;;;7.17;;
3155;SDS011;1588;50.892;7.082;2024-01-25T05:09:07;42.40;;;6.50;;
3155;SDS011;1588;50.892;7.082;2024-01-25T05:14:10;49.93;;;5.67;;
3155;SDS011;1588;50.892;7.082;2024-01-25T05:19:12;50.50;;;7.47;;
3155;SDS011;1588;50.892;7.082;2024-01-25T05:24:16;35.10;;;5.10;;
3155;SDS011;1588;50.892;7.082;2024-01-25T05:29:20;45.23;;;6.60;;
3155;SDS011;1588;50.892;7.082;2024-01-25T05:34:22;55.23;;;6.80;;
3155;SDS011;1588;50.892;7.082;2024-01-25T05:39:26;38.80;;;5.70;;
3155;SDS011;1588;50.892;7.082;2024-01-25T05:44:28;47.73;;;5.63;;
3155;SDS011;1588;50.892;7.082;2024-01-25T05:49:31;22.33;;;5.40;;
3155;SDS011;1588;50.892;7.082;2024-01-25T05:54:34;35.17;;;5.23;;
3155;SDS011;1588;50.892;7.082;2024-01-25T05:59:37;40.33;;;6.07;;
3155;SDS011;1588;50.892;7.082;2024-01-25T06:04:39;44.73;;;6.27;;
3155;SDS011;1588;50.892;7.082;2024-01-25T06:09:43;40.50;;;6.93;;
3155;SDS011;1588;50.892;7.082;2024-01-25T06:14:45;57.40;;;5.90;;
3155;SDS011;1588;50.892;7.082;2024-01-25T06:19:50;40.80;;;6.03;;
3155;SDS011;1588;50.892;7.082;2024-01-25T06:24:54;33.40;;;5.07;;
3155;SDS011;1588;50.892;7.082;2024-01-25T06:29:56;35.10;;;5.40;;
3155;SDS011;1588;50.892;7.082;2024-01-25T06:34:58;38.00;;;4.80;;
3155;SDS011;1588;50.892;7.082;2024-01-25T06:40:02;34.23;;;5.20;;
3155;SDS011;1588;50.892;7.082;2024-01-25T06:45:06;31.60;;;6.00;;
3155;SDS011;1588;50.892;7.082;2024-01-25T06:50:09;28.33;;;5.10;;
3155;SDS011;1588;50.892;7.082;2024-01-25T06:55:12;37.07;;;5.37;;
3155;SDS011;1588;50.892;7.082;2024-01-25T07:00:15;34.70;;;5.43;;
3155;SDS011;1588;50.892;7.082;2024-01-25T07:05:17;32.03;;;5.00;;
3155;SDS011;1588;50.892;7.082;2024-01-25T07:10:21;26.87;;;4.50;;
3155;SDS011;1588;50.892;7.082;2024-01-25T07:15:24;19.83;;;4.00;;
3155;SDS011;1588;50.892;7.082;2024-01-25T07:20:26;32.43;;;4.00;;
3155;SDS011;1588;50.892;7.082;2024-01-25T07:25:30;31.97;;;5.00;;
3155;SDS011;1588;50.892;7.082;2024-01-25T07:30:33;39.97;;;5.47;;
3155;SDS011;1588;50.892;7.082;2024-01-25T07:35:35;29.43;;;4.30;;
3155;SDS011;1588;50.892;7.082;2024-01-25T07:40:40;28.03;;;5.47;;
3155;SDS011;1588;50.892;7.082;2024-01-25T07:45:42;18.07;;;5.33;;
3155;SDS011;1588;50.892;7.082;2024-01-25T07:50:45;34.13;;;4.90;;
3155;SDS011;1588;50.892;7.082;2024-01-25T07:55:54;36.00;;;6.10;;
3155;SDS011;1588;50.892;7.082;2024-01-25T08:00:59;32.03;;;5.60;;
3155;SDS011;1588;50.892;7.082;2024-01-25T08:06:07;26.03;;;5.13;;
3155;SDS011;1588;50.892;7.082;2024-01-25T08:11:10;43.70;;;4.23;;
3155;SDS011;1588;50.892;7.082;2024-01-25T08:16:13;19.63;;;4.83;;
3155;SDS011;1588;50.892;7.082;2024-01-25T08:21:22;39.60;;;5.53;;
3155;SDS011;1588;50.892;7.082;2024-01-25T08:26:30;32.47;;;6.10;;
3155;SDS011;1588;50.892;7.082;2024-01-25T08:31:32;47.43;;;7.23;;
3155;SDS011;1588;50.892;7.082;2024-01-25T08:36:49;46.53;;;6.27;;
3155;SDS011;1588;50.892;7.082;2024-01-25T08:41:53;28.87;;;4.90;;
3155;SDS011;1588;50.892;7.082;2024-01-25T08:46:57;29.97;;;4.87;;
3155;SDS011;1588;50.892;7.082;2024-01-25T08:52:02;21.53;;;4.70;;
3155;SDS011;1588;50.892;7.082;2024-01-25T08:57:12;37.73;;;4.57;;
3155;SDS011;1588;50.892;7.082;2024-01-25T09:02:16;36.77;;;5.60;;
3155;SDS011;1588;50.892;7.082;2024-01-25T09:07:19;31.40;;;5.67;;
3155;SDS011;1588;50.892;7.082;2024-01-25T09:12:23;30.17;;;5.40;;
3155;SDS011;1588;50.892;7.082;2024-01-25T09:17:26;32.10;;;5.00;;
3155;SDS011;1588;50.892;7.082;2024-01-25T09:22:45;41.20;;;6.67;;
3155;SDS011;1588;50.892;7.082;2024-01-25T09:27:57;20.00;;;5.10;;
3155;SDS011;1588;50.892;7.082;2024-01-25T09:33:02;35.37;;;5.43;;
3155;SDS011;1588;50.892;7.082;2024-01-25T09:38:14;33.30;;;6.07;;
3155;SDS011;1588;50.892;7.082;2024-01-25T09:43:21;34.37;;;8.20;;
3155;SDS011;1588;50.892;7.082;2024-01-25T09:48:24;32.83;;;6.40;;
3155;SDS011;1588;50.892;7.082;2024-01-25T09:53:29;28.60;;;7.40;;
3155;SDS011;1588;50.892;7.082;2024-01-25T09:58:37;36.03;;;8.10;;
3155;SDS011;1588;50.892;7.082;2024-01-25T10:03:43;35.23;;;8.23;;
3155;SDS011;1588;50.892;7.082;2024-01-25T10:08:53;30.40;;;7.50;;
3155;SDS011;1588;50.892;7.082;2024-01-25T10:13:57;33.17;;;7.47;;
3155;SDS011;1588;50.892;7.082;2024-01-25T10:19:19;48.43;;;8.10;;
3155;SDS011;1588;50.892;7.082;2024-01-25T10:24:22;48.33;;;10.10;;
3155;SDS011;1588;50.892;7.082;2024-01-25T10:29:26;39.67;;;7.80;;
3155;SDS011;1588;50.892;7.082;2024-01-25T10:34:29;33.63;;;8.50;;
3155;SDS011;1588;50.892;7.082;2024-01-25T10:39:32;47.17;;;8.87;;
3155;SDS011;1588;50.892;7.082;2024-01-25T10:44:37;35.53;;;8.67;;
3155;SDS011;1588;50.892;7.082;2024-01-25T10:49:39;58.13;;;8.70;;
3155;SDS011;1588;50.892;7.082;2024-01-25T10:54:45;32.53;;;8.43;;
3155;SDS011;1588;50.892;7.082;2024-01-25T10:59:49;42.00;;;7.93;;
3155;SDS011;1588;50.892;7.082;2024-01-25T11:04:52;46.20;;;8.57;;
3155;SDS011;1588;50.892;7.082;2024-01-25T11:09:57;42.23;;;8.07;;
3155;SDS011;1588;50.892;7.082;2024-01-25T11:15:07;44.43;;;8.13;;
3155;SDS011;1588;50.892;7.082;2024-01-25T11:20:13;38.83;;;8.00;;
3155;SDS011;1588;50.892;7.082;2024-01-25T11:25:23;33.57;;;7.70;;
3155;SDS011;1588;50.892;7.082;2024-01-25T11:30:33;35.87;;;6.87;;
3155;SDS011;1588;50.892;7.082;2024-01-25T11:35:36;38.67;;;6.43;;
3155;SDS011;1588;50.892;7.082;2024-01-25T11:40:39;43.60;;;7.00;;
3155;SDS011;1588;50.892;7.082;2024-01-25T11:45:45;29.07;;;6.10;;
3155;SDS011;1588;50.892;7.082;2024-01-25T11:50:47;25.60;;;7.27;;
3155;SDS011;1588;50.892;7.082;2024-01-25T11:55:50;27.73;;;6.97;;
3155;SDS011;1588;50.892;7.082;2024-01-25T12:00:54;40.07;;;7.23;;
3155;SDS011;1588;50.892;7.082;2024-01-25T12:05:57;40.10;;;5.93;;
3155;SDS011;1588;50.892;7.082;2024-01-25T12:11:04;36.60;;;6.30;;
3155;SDS011;1588;50.892;7.082;2024-01-25T12:16:09;40.30;;;5.93;;
3155;SDS011;1588;50.892;7.082;2024-01-25T12:21:12;30.43;;;4.30;;
3155;SDS011;1588;50.892;7.082;2024-01-25T12:26:15;21.80;;;4.30;;
3155;SDS011;1588;50.892;7.082;2024-01-25T12:31:21;40.23;;;5.23;;
3155;SDS011;1588;50.892;7.082;2024-01-25T12:36:26;32.07;;;4.13;;
3155;SDS011;1588;50.892;7.082;2024-01-25T12:41:28;30.13;;;5.83;;
3155;SDS011;1588;50.892;7.082;2024-01-25T12:46:34;28.17;;;5.07;;
3155;SDS011;1588;50.892;7.082;2024-01-25T12:51:39;25.27;;;4.53;;
3155;SDS011;1588;50.892;7.082;2024-01-25T12:56:44;33.67;;;3.97;;
3155;SDS011;1588;50.892;7.082;2024-01-25T13:01:51;28.47;;;4.70;;
3155;SDS011;1588;50.892;7.082;2024-01-25T13:06:54;35.70;;;7.47;;
3155;SDS011;1588;50.892;7.082;2024-01-25T13:12:02;28.63;;;4.03;;
3155;SDS011;1588;50.892;7.082;2024-01-25T13:17:05;31.90;;;4.97;;
3155;SDS011;1588;50.892;7.082;2024-01-25T13:22:08;20.33;;;4.67;;
3155;SDS011;1588;50.892;7.082;2024-01-25T13:27:11;32.17;;;4.87;;
3155;SDS011;1588;50.892;7.082;2024-01-25T13:32:15;28.93;;;6.87;;
3155;SDS011;1588;50.892;7.082;2024-01-25T13:37:17;19.17;;;3.90;;
3155;SDS011;1588;50.892;7.082;2024-01-25T13:42:20;19.57;;;3.70;;
3155;SDS011;1588;50.892;7.082;2024-01-25T13:47:23;35.13;;;4.63;;
3155;SDS011;1588;50.892;7.082;2024-01-25T13:52:26;27.43;;;4.23;;
3155;SDS011;1588;50.892;7.082;2024-01-25T13:57:28;26.07;;;3.93;;
3155;SDS011;1588;50.892;7.082;2024-01-25T14:02:32;18.03;;;3.30;;
3155;SDS011;1588;50.892;7.082;2024-01-25T14:07:35;33.03;;;5.50;;
3155;SDS011;1588;50.892;7.082;2024-01-25T14:12:37;17.93;;;4.00;;
3155;SDS011;1588;50.892;7.082;2024-01-25T14:17:43;25.33;;;4.97;;
3155;SDS011;1588;50.892;7.082;2024-01-25T14:22:45;26.43;;;5.23;;
3155;SDS011;1588;50.892;7.082;2024-01-25T14:27:50;15.97;;;3.80;;
3155;SDS011;1588;50.892;7.082;2024-01-25T14:32:54;16.50;;;5.00;;
3155;SDS011;1588;50.892;7.082;2024-01-25T14:37:57;24.80;;;4.60;;
3155;SDS011;1588;50.892;7.082;2024-01-25T14:42:59;26.53;;;3.63;;
3155;SDS011;1588;50.892;7.082;2024-01-25T14:48:05;23.30;;;3.87;;
3155;SDS011;1588;50.892;7.082;2024-01-25T14:53:08;19.03;;;4.43;;
3155;SDS011;1588;50.892;7.082;2024-01-25T14:58:10;20.83;;;3.20;;
3155;SDS011;1588;50.892;7.082;2024-01-25T15:03:16;31.13;;;5.30;;
3155;SDS011;1588;50.892;7.082;2024-01-25T15:08:19;22.60;;;4.23;;
3155;SDS011;1588;50.892;7.082;2024-01-25T15:13:21;37.63;;;4.80;;
3155;SDS011;1588;50.892;7.082;2024-01-25T15:18:26;20.43;;;4.07;;
3155;SDS011;1588;50.892;7.082;2024-01-25T15:23:29;23.20;;;4.90;;
3155;SDS011;1588;50.892;7.082;2024-01-25T15:28:33;27.63;;;4.57;;
3155;SDS011;1588;50.892;7.082;2024-01-25T15:33:37;18.63;;;3.90;;
3155;SDS011;1588;50.892;7.082;2024-01-25T15:38:42;17.23;;;3.80;;
3155;SDS011;1588;50.892;7.082;2024-01-25T15:43:45;32.57;;;4.63;;
3155;SDS011;1588;50.892;7.082;2024-01-25T15:48:52;31.23;;;5.00;;
3155;SDS011;1588;50.892;7.082;2024-01-25T15:53:59;17.27;;;3.97;;
3155;SDS011;1588;50.892;7.082;2024-01-25T15:59:02;21.60;;;3.67;;
3155;SDS011;1588;50.892;7.082;2024-01-25T16:04:06;15.23;;;3.87;;
3155;SDS011;1588;50.892;7.082;2024-01-25T16:09:14;17.97;;;4.10;;
3155;SDS011;1588;50.892;7.082;2024-01-25T16:14:17;22.37;;;4.40;;
3155;SDS011;1588;50.892;7.082;2024-01-25T16:19:21;29.90;;;5.03;;
3155;SDS011;1588;50.892;7.082;2024-01-25T16:24:23;19.27;;;3.90;;
3155;SDS011;1588;50.892;7.082;2024-01-25T16:29:26;26.83;;;4.63;;
3155;SDS011;1588;50.892;7.082;2024-01-25T16:34:31;22.27;;;4.23;;
3155;SDS011;1588;50.892;7.082;2024-01-25T16:39:34;25.03;;;4.17;;
3155;SDS011;1588;50.892;7.082;2024-01-25T16:44:36;29.27;;;4.73;;
3155;SDS011;1588;50.892;7.082;2024-01-25T16:49:40;22.57;;;4.00;;
3155;SDS011;1588;50.892;7.082;2024-01-25T16:54:42;23.13;;;3.77;;
3155;SDS011;1588;50.892;7.082;2024-01-25T16:59:45;23.90;;;4.43;;
3155;SDS011;1588;50.892;7.082;2024-01-25T17:04:49;24.03;;;4.50;;
3155;SDS011;1588;50.892;7.082;2024-01-25T17:09:51;26.13;;;3.40;;
3155;SDS011;1588;50.892;7.082;2024-01-25T17:14:54;34.70;;;4.40;;
3155;SDS011;1588;50.892;7.082;2024-01-25T17:19:57;19.80;;;5.00;;
3155;SDS011;1588;50.892;7.082;2024-01-25T17:25:00;22.87;;;4.87;;
3155;SDS011;1588;50.892;7.082;2024-01-25T17:30:02;19.87;;;4.20;;
3155;SDS011;1588;50.892;7.082;2024-01-25T17:35:06;26.30;;;5.07;;
3155;SDS011;1588;50.892;7.082;2024-01-25T17:40:12;16.43;;;3.63;;
3155;SDS011;1588;50.892;7.082;2024-01-25T17:45:15;20.83;;;4.70;;
3155;SDS011;1588;50.892;7.082;2024-01-25T17:50:19;32.57;;;4.50;;
3155;SDS011;1588;50.892;7.082;2024-01-25T17:55:22;19.00;;;4.90;;
3155;SDS011;1588;50.892;7.082;2024-01-25T18:00:25;15.40;;;3.97;;
3155;SDS011;1588;50.892;7.082;2024-01-25T18:05:29;34.87;;;5.07;;
3155;SDS011;1588;50.892;7.082;2024-01-25T18:10:31;29.77;;;5.10;;
3155;SDS011;1588;50.892;7.082;2024-01-25T18:15:34;28.63;;;5.13;;
3155;SDS011;1588;50.892;7.082;2024-01-25T18:20:38;35.23;;;5.00;;
3155;SDS011;1588;50.892;7.082;2024-01-25T18:25:40;18.93;;;4.07;;
3155;SDS011;1588;50.892;7.082;2024-01-25T18:30:45;19.90;;;3.20;;
3155;SDS011;1588;50.892;7.082;2024-01-25T18:35:49;16.03;;;3.80;;
3155;SDS011;1588;50.892;7.082;2024-01-25T18:40:54;19.07;;;3.70;;
3155;SDS011;1588;50.892;7.082;2024-01-25T18:45:56;29.03;;;4.70;;
3155;SDS011;1588;50.892;7.082;2024-01-25T18:51:04;15.23;;;3.10;;
3155;SDS011;1588;50.892;7.082;2024-01-25T18:56:07;22.23;;;4.67;;
3155;SDS011;1588;50.892;7.082;2024-01-25T19:01:17;19.80;;;6.40;;
3155;SDS011;1588;50.892;7.082;2024-01-25T19:06:22;18.40;;;5.00;;
3155;SDS011;1588;50.892;7.082;2024-01-25T19:11:25;23.77;;;4.27;;
3155;SDS011;1588;50.892;7.082;2024-01-25T19:16:30;17.67;;;4.07;;
3155;SDS011;1588;50.892;7.082;2024-01-25T19:21:38;18.53;;;4.47;;
3155;SDS011;1588;50.892;7.082;2024-01-25T19:26:41;32.70;;;5.47;;
3155;SDS011;1588;50.892;7.082;2024-01-25T19:31:45;16.60;;;5.13;;
3155;SDS011;1588;50.892;7.082;2024-01-25T19:36:49;38.33;;;5.20;;
3155;SDS011;1588;50.892;7.082;2024-01-25T19:41:52;17.57;;;5.23;;
3155;SDS011;1588;50.892;7.082;2024-01-25T19:46:58;15.17;;;4.20;;
3155;SDS011;1588;50.892;7.082;2024-01-25T19:52:19;25.47;;;5.03;;
3155;SDS011;1588;50.892;7.082;2024-01-25T19:57:22;28.10;;;5.10;;
3155;SDS011;1588;50.892;7.082;2024-01-25T20:02:26;21.23;;;5.33;;
3155;SDS011;1588;50.892;7.082;2024-01-25T20:07:31;38.37;;;5.70;;
3155;SDS011;1588;50.892;7.082;2024-01-25T20:12:35;27.27;;;5.63;;
3155;SDS011;1588;50.892;7.082;2024-01-25T20:17:41;35.27;;;6.73;;
3155;SDS011;1588;50.892;7.082;2024-01-25T20:22:45;26.17;;;5.00;;
3155;SDS011;1588;50.892;7.082;2024-01-25T20:27:48;24.50;;;5.53;;
3155;SDS011;1588;50.892;7.082;2024-01-25T20:32:53;31.47;;;5.77;;
3155;SDS011;1588;50.892;7.082;2024-01-25T20:37:57;36.80;;;5.30;;
3155;SDS011;1588;50.892;7.082;2024-01-25T20:43:00;34.10;;;6.50;;
3155;SDS011;1588;50.892;7.082;2024-01-25T20:48:03;19.43;;;5.20;;
3155;SDS011;1588;50.892;7.082;2024-01-25T20:53:08;24.87;;;5.40;;
3155;SDS011;1588;50.892;7.082;2024-01-25T20:58:10;33.30;;;5.40;;
3155;SDS011;1588;50.892;7.082;2024-01-25T21:03:13;25.53;;;6.27;;
3155;SDS011;1588;50.892;7.082;2024-01-25T21:08:17;21.63;;;5.73;;
3155;SDS011;1588;50.892;7.082;2024-01-25T21:13:20;35.80;;;6.63;;
3155;SDS011;1588;50.892;7.082;2024-01-25T21:18:23;30.03;;;6.77;;
3155;SDS011;1588;50.892;7.082;2024-01-25T21:23:27;19.70;;;5.43;;
3155;SDS011;1588;50.892;7.082;2024-01-25T21:28:29;18.27;;;4.70;;
3155;SDS011;1588;50.892;7.082;2024-01-25T21:33:31;15.00;;;5.10;;
3155;SDS011;1588;50.892;7.082;2024-01-25T21:38:35;20.13;;;5.70;;
3155;SDS011;1588;50.892;7.082;2024-01-25T21:43:38;11.77;;;5.00;;
3155;SDS011;1588;50.892;7.082;2024-01-25T21:48:41;17.47;;;5.03;;
3155;SDS011;1588;50.892;7.082;2024-01-25T21:53:44;23.33;;;4.30;;
3155;SDS011;1588;50.892;7.082;2024-01-25T21:58:47;21.20;;;5.57;;
3155;SDS011;1588;50.892;7.082;2024-01-25T22:03:49;19.13;;;5.13;;
3155;SDS011;1588;50.892;7.082;2024-01-25T22:08:57;22.50;;;4.97;;
3155;SDS011;1588;50.892;7.082;2024-01-25T22:13:59;15.33;;;5.30;;
3155;SDS011;1588;50.892;7.082;2024-01-25T22:19:05;12.27;;;5.03;;
3155;SDS011;1588;50.892;7.082;2024-01-25T22:24:09;11.63;;;4.57;;
3155;SDS011;1588;50.892;7.082;2024-01-25T22:29:11;12.67;;;4.67;;
3155;SDS011;1588;50.892;7.082;2024-01-25T22:34:14;15.17;;;4.90;;
3155;SDS011;1588;50.892;7.082;2024-01-25T22:39:17;23.63;;;5.03;;
3155;SDS011;1588;50.892;7.082;2024-01-25T22:44:20;20.97;;;4.23;;
3155;SDS011;1588;50.892;7.082;2024-01-25T22:49:22;6.97;;;3.60;;
3155;SDS011;1588;50.892;7.082;2024-01-25T22:54:26;12.97;;;4.47;;
3155;SDS011;1588;50.892;7.082;2024-01-25T22:59:28;8.53;;;4.40;;
3155;SDS011;1588;50.892;7.082;2024-01-25T23:04:31;33.83;;;5.37;;
3155;SDS011;1588;50.892;7.082;2024-01-25T23:09:34;14.17;;;5.23;;
3155;SDS011;1588;50.892;7.082;2024-01-25T23:14:37;12.30;;;5.07;;
3155;SDS011;1588;50.892;7.082;2024-01-25T23:19:42;20.77;;;4.63;;
3155;SDS011;1588;50.892;7.082;2024-01-25T23:24:49;8.93;;;4.50;;
3155;SDS011;1588;50.892;7.082;2024-01-25T23:29:52;17.73;;;5.17;;
3155;SDS011;1588;50.892;7.082;2024-01-25T23:34:54;22.57;;;5.60;;
3155;SDS011;1588;50.892;7.082;2024-01-25T23:39:58;11.03;;;5.90;;
3155;SDS011;1588;50.892;7.082;2024-01-25T23:45:01;13.57;;;5.00;;
3155;SDS011;1588;50.892;7.082;2024-01-25T23:50:03;12.63;;;5.00;;
3155;SDS011;1588;50.892;7.082;2024-01-25T23:55:11;16.33;;;6.37;;
